Time;durP1;ratioP1;P1;durP2;ratioP2;P2;SDS_P1;SDS_P2;PMS_P1;PMS_P2;Temp;Humidity;BMP_temperature;BMP_pressure;BME280_temperature;BME280_humidity;BME280_pressure;Samples;Min_cycle;Max_cycle;Signal;HPM_P1;HPM_P2
2022/12/28 00:01:17;;;;;;;3.38;1.30;;;6.10;99.90;;;;;;5027671;28;20045;-39
2022/12/28 00:03:43;;;;;;;10.07;1.88;;;6.10;99.90;;;;;;5023172;28;20052;-36
2022/12/28 00:06:10;;;;;;;6.03;1.92;;;6.10;99.90;;;;;;5029040;28;20486;-34
2022/12/28 00:08:36;;;;;;;3.00;1.23;;;6.10;99.90;;;;;;5023333;28;20569;-34
2022/12/28 00:11:07;;;;;;;6.82;2.17;;;6.20;99.90;;;;;;5030052;28;20399;-36
2022/12/28 00:13:34;;;;;;;9.27;2.42;;;6.20;99.90;;;;;;5022374;28;20029;-37
2022/12/28 00:16:14;;;;;;;5.00;2.10;;;6.10;99.90;;;;;;5029534;28;20068;-40
2022/12/28 00:18:40;;;;;;;6.82;2.60;;;6.10;99.90;;;;;;5026544;28;20049;-36
2022/12/28 00:21:06;;;;;;;4.68;2.00;;;6.10;99.90;;;;;;5030698;28;20091;-37
2022/12/28 00:23:31;;;;;;;7.43;2.25;;;6.10;99.90;;;;;;5026606;28;20087;-36
2022/12/28 00:26:08;;;;;;;8.60;2.33;;;6.10;99.90;;;;;;5023954;28;20044;-36
2022/12/28 00:28:34;;;;;;;3.90;1.45;;;6.10;99.90;;;;;;5024775;28;20047;-36
2022/12/28 00:31:00;;;;;;;5.97;2.33;;;6.10;99.90;;;;;;5023588;28;20065;-36
2022/12/28 00:33:25;;;;;;;4.68;2.10;;;6.10;99.90;;;;;;5024162;28;20463;-37
2022/12/28 00:35:59;;;;;;;6.28;2.50;;;6.10;99.90;;;;;;5026471;28;20043;-37
2022/12/28 00:38:25;;;;;;;4.70;1.70;;;6.10;99.90;;;;;;5023543;28;20132;-37
2022/12/28 00:40:51;;;;;;;4.78;1.80;;;6.10;99.90;;;;;;5025124;28;20161;-37
2022/12/28 00:43:17;;;;;;;3.83;1.75;;;6.10;99.90;;;;;;5023572;28;20034;-37
2022/12/28 00:45:46;;;;;;;8.13;1.80;;;6.10;99.90;;;;;;5024948;28;20052;-37
2022/12/28 00:48:13;;;;;;;8.60;2.22;;;6.10;99.90;;;;;;5027295;28;20071;-37
2022/12/28 00:50:39;;;;;;;5.25;1.52;;;6.10;99.90;;;;;;5024745;28;20062;-37
2022/12/28 00:53:05;;;;;;;6.85;2.45;;;6.10;99.90;;;;;;5027159;28;20034;-36
2022/12/28 00:55:32;;;;;;;5.53;1.98;;;6.10;99.90;;;;;;5028082;28;20036;-37
2022/12/28 00:57:59;;;;;;;5.30;2.63;;;6.10;99.90;;;;;;5028261;28;20055;-38
2022/12/28 01:00:26;;;;;;;6.30;2.08;;;6.10;99.90;;;;;;5027767;28;20138;-37
2022/12/28 01:02:52;;;;;;;4.85;2.25;;;6.10;99.90;;;;;;5022892;28;20203;-42
2022/12/28 01:05:18;;;;;;;6.00;1.92;;;6.10;99.90;;;;;;5023663;28;20132;-36
2022/12/28 01:07:43;;;;;;;5.78;2.40;;;6.10;99.90;;;;;;5023255;28;20049;-37
2022/12/28 01:10:09;;;;;;;7.32;1.80;;;6.20;99.90;;;;;;5026972;28;20431;-36
2022/12/28 01:12:35;;;;;;;8.70;2.40;;;6.10;99.90;;;;;;5022866;28;20124;-40
2022/12/28 01:15:05;;;;;;;7.53;2.95;;;6.10;99.90;;;;;;5026695;28;20140;-37
2022/12/28 01:17:31;;;;;;;6.63;2.10;;;6.20;99.90;;;;;;5024616;28;20047;-36
2022/12/28 01:19:56;;;;;;;7.55;2.50;;;6.20;99.90;;;;;;5024807;28;20038;-36
2022/12/28 01:22:22;;;;;;;7.20;2.92;;;6.20;99.90;;;;;;5025771;28;20033;-37
2022/12/28 01:24:48;;;;;;;6.75;2.28;;;6.20;99.90;;;;;;5029426;28;20033;-36
2022/12/28 01:27:14;;;;;;;9.10;2.40;;;6.20;99.90;;;;;;5024660;28;20119;-36
2022/12/28 01:29:39;;;;;;;8.70;2.33;;;6.20;99.90;;;;;;5028393;28;20037;-38
2022/12/28 01:32:05;;;;;;;5.72;2.42;;;6.20;99.90;;;;;;5024325;28;20037;-36
2022/12/28 01:34:31;;;;;;;4.95;1.85;;;6.20;99.90;;;;;;5021591;28;20554;-36
2022/12/28 01:36:57;;;;;;;6.82;2.67;;;6.20;99.90;;;;;;5025783;28;20132;-36
2022/12/28 01:39:22;;;;;;;5.88;1.90;;;6.30;99.90;;;;;;5020674;28;20034;-36
2022/12/28 01:41:48;;;;;;;6.38;1.85;;;6.30;99.90;;;;;;5025924;28;20037;-37
2022/12/28 01:44:14;;;;;;;6.30;2.30;;;6.30;99.90;;;;;;5025123;28;20045;-36
2022/12/28 01:46:59;;;;;;;7.57;2.80;;;6.40;99.90;;;;;;5024079;28;20048;-37
2022/12/28 01:49:43;;;;;;;3.78;1.50;;;6.40;99.90;;;;;;5021780;28;20061;-38
2022/12/28 01:52:11;;;;;;;5.50;1.90;;;6.40;99.90;;;;;;5023374;28;20085;-36
2022/12/28 01:54:52;;;;;;;6.30;2.05;;;6.40;99.90;;;;;;5023382;28;20041;-36
2022/12/28 01:57:21;;;;;;;7.20;2.30;;;6.40;99.90;;;;;;5028186;28;20033;-36
2022/12/28 01:59:56;;;;;;;8.57;2.45;;;6.40;99.90;;;;;;5028165;28;20059;-34
2022/12/28 02:02:22;;;;;;;5.43;2.28;;;6.40;99.90;;;;;;5022486;28;20084;-40
2022/12/28 02:04:48;;;;;;;5.22;2.25;;;6.40;99.90;;;;;;5024715;28;20037;-36
2022/12/28 02:07:36;;;;;;;6.03;2.15;;;6.50;99.90;;;;;;5027571;28;20662;-36
2022/12/28 02:10:02;;;;;;;5.53;2.03;;;6.50;99.90;;;;;;5018437;28;20041;-37
2022/12/28 02:12:28;;;;;;;7.97;2.05;;;6.60;99.90;;;;;;5021783;28;20139;-38
2022/12/28 02:14:54;;;;;;;5.22;2.40;;;6.60;99.90;;;;;;5025225;28;20045;-36
2022/12/28 02:17:20;;;;;;;6.47;2.53;;;6.60;99.90;;;;;;5025589;28;20487;-36
2022/12/28 02:19:47;;;;;;;4.78;2.40;;;6.70;99.90;;;;;;5027603;28;20059;-36
2022/12/28 02:22:32;;;;;;;7.43;2.38;;;6.70;99.90;;;;;;5024544;28;20037;-35
2022/12/28 02:25:30;;;;;;;4.88;1.67;;;6.70;99.90;;;;;;5024875;28;20037;-35
2022/12/28 02:28:15;;;;;;;6.00;2.13;;;6.70;99.90;;;;;;5022621;28;20041;-36
2022/12/28 02:30:54;;;;;;;3.40;1.58;;;6.70;99.90;;;;;;5023410;28;20046;-35
2022/12/28 02:33:31;;;;;;;3.63;1.85;;;6.80;99.90;;;;;;5021275;28;20047;-37
2022/12/28 02:36:04;;;;;;;4.25;2.20;;;6.70;99.90;;;;;;5025515;28;20059;-35
2022/12/28 02:38:39;;;;;;;4.38;1.80;;;6.70;99.90;;;;;;5024371;28;20594;-37
2022/12/28 02:41:16;;;;;;;7.75;2.53;;;6.70;99.90;;;;;;5027195;28;20514;-36
2022/12/28 02:43:42;;;;;;;3.65;1.23;;;6.80;99.90;;;;;;5026918;28;20120;-35
2022/12/28 02:52:08;;;;;;;6.43;2.75;;;6.80;99.90;;;;;;5020874;28;20439;-34
2022/12/28 02:58:18;;;;;;;4.28;1.98;;;6.80;99.90;;;;;;5024549;28;20107;-37
2022/12/28 03:01:02;;;;;;;5.32;1.88;;;6.80;99.90;;;;;;5019342;28;20570;-35
2022/12/28 03:03:49;;;;;;;5.32;2.45;;;6.80;99.90;;;;;;5021466;28;20051;-35
2022/12/28 03:09:42;;;;;;;5.55;2.67;;;6.80;99.90;;;;;;5025281;28;20065;-36
2022/12/28 03:12:11;;;;;;;6.32;2.80;;;6.80;99.90;;;;;;5021462;28;20041;-35
2022/12/28 03:15:02;;;;;;;5.88;2.35;;;6.80;99.90;;;;;;5023410;28;20038;-35
2022/12/28 03:31:34;;;;;;;5.18;2.13;;;6.70;99.90;;;;;;5025843;28;20049;-36
2022/12/28 03:34:07;;;;;;;5.38;2.53;;;6.70;99.90;;;;;;5028200;28;20590;-37
2022/12/28 03:36:56;;;;;;;;;;;6.70;99.90;;;;;;5025131;28;20084;-36
2022/12/28 03:39:29;;;;;;;4.82;1.98;;;6.70;99.90;;;;;;5029220;28;19948;-36
2022/12/28 03:44:54;;;;;;;6.27;2.13;;;6.70;99.90;;;;;;5028130;28;20526;-36
2022/12/28 03:47:23;;;;;;;3.67;1.60;;;6.70;99.90;;;;;;5025227;28;20044;-36
2022/12/28 03:49:49;;;;;;;4.63;2.58;;;6.70;99.90;;;;;;5027934;28;20100;-38
2022/12/28 03:52:15;;;;;;;5.25;2.10;;;6.70;99.90;;;;;;5030034;28;20046;-36
2022/12/28 03:54:42;;;;;;;2.72;1.45;;;6.70;99.90;;;;;;5028067;28;20029;-36
2022/12/28 03:57:08;;;;;;;7.35;2.88;;;6.70;99.90;;;;;;5029295;28;20047;-38
2022/12/28 03:59:34;;;;;;;4.65;2.78;;;6.70;99.90;;;;;;5030249;28;20494;-35
2022/12/28 04:02:00;;;;;;;2.53;1.23;;;6.70;99.90;;;;;;5023575;28;20387;-39
2022/12/28 04:04:25;;;;;;;4.70;2.35;;;6.80;99.90;;;;;;5029840;28;20048;-36
2022/12/28 04:06:51;;;;;;;4.70;2.35;;;6.70;99.90;;;;;;5025198;28;20045;-37
2022/12/28 04:09:17;;;;;;;5.20;2.28;;;6.80;99.90;;;;;;5028626;28;20038;-36
2022/12/28 04:11:42;;;;;;;4.20;2.13;;;6.80;99.90;;;;;;5029959;28;20041;-38
2022/12/28 04:14:08;;;;;;;5.43;2.42;;;6.80;99.90;;;;;;5025439;28;20045;-36
2022/12/28 04:16:34;;;;;;;4.43;2.05;;;6.80;99.90;;;;;;5027663;28;20033;-36
2022/12/28 04:18:59;;;;;;;3.78;1.85;;;6.80;99.90;;;;;;5040995;28;20036;-35
2022/12/28 04:21:25;;;;;;;4.43;2.35;;;6.80;99.90;;;;;;5029145;28;20501;-35
2022/12/28 04:23:51;;;;;;;5.53;2.67;;;6.80;99.90;;;;;;5025198;28;20052;-37
2022/12/28 04:26:17;;;;;;;5.03;2.60;;;6.90;99.90;;;;;;5030548;28;20087;-36
2022/12/28 04:28:43;;;;;;;5.70;2.85;;;6.90;99.90;;;;;;5023277;28;20120;-35
2022/12/28 04:31:12;;;;;;;3.50;1.85;;;6.90;99.90;;;;;;5025016;28;20155;-35
2022/12/28 04:33:39;;;;;;;5.65;2.13;;;6.90;99.90;;;;;;5018485;28;20038;-36
2022/12/28 04:36:08;;;;;;;5.63;2.95;;;6.90;99.90;;;;;;5019342;28;20038;-36
2022/12/28 04:38:34;;;;;;;6.30;3.85;;;7.00;99.90;;;;;;5028493;28;20042;-36
2022/12/28 04:41:01;;;;;;;6.28;3.25;;;7.00;99.90;;;;;;5025915;28;20037;-35
2022/12/28 04:43:29;;;;;;;9.38;3.65;;;7.00;99.90;;;;;;5026067;28;20375;-36
2022/12/28 04:45:59;;;;;;;5.72;3.15;;;7.00;99.90;;;;;;5030275;28;20053;-36
2022/12/28 04:48:26;;;;;;;6.60;3.85;;;7.00;99.90;;;;;;5027227;28;20193;-38
2022/12/28 04:50:53;;;;;;;5.90;3.33;;;7.10;99.90;;;;;;5015001;28;20083;-36
2022/12/28 04:53:22;;;;;;;6.75;3.63;;;7.10;99.90;;;;;;5021480;28;20503;-36
2022/12/28 04:55:48;;;;;;;7.32;3.85;;;7.20;99.90;;;;;;5027418;28;20036;-37
2022/12/28 04:58:14;;;;;;;6.40;3.83;;;7.20;99.90;;;;;;5029658;28;20034;-36
2022/12/28 05:00:40;;;;;;;6.13;3.30;;;7.20;99.90;;;;;;5029933;28;20399;-37
2022/12/28 05:03:05;;;;;;;8.02;3.30;;;7.20;99.90;;;;;;5025162;28;20045;-36
2022/12/28 05:05:32;;;;;;;7.80;4.28;;;7.20;99.90;;;;;;5030564;28;20030;-36
2022/12/28 05:08:01;;;;;;;6.53;3.67;;;7.30;99.90;;;;;;5026032;28;20041;-36
2022/12/28 05:10:28;;;;;;;5.57;3.30;;;7.30;99.90;;;;;;5028429;28;20052;-36
2022/12/28 05:12:55;;;;;;;5.70;3.40;;;7.40;99.90;;;;;;5026446;28;20124;-35
2022/12/28 05:15:21;;;;;;;5.32;3.60;;;7.40;99.90;;;;;;5028013;28;20083;-35
2022/12/28 05:17:46;;;;;;;7.13;3.90;;;7.40;99.90;;;;;;5024703;28;20029;-36
2022/12/28 05:20:12;;;;;;;6.55;4.03;;;7.50;99.90;;;;;;5027564;28;20409;-35
2022/12/28 05:22:38;;;;;;;8.32;4.85;;;7.50;99.90;;;;;;5029893;28;20033;-36
2022/12/28 05:25:05;;;;;;;8.77;5.10;;;7.50;99.90;;;;;;5027938;28;20069;-37
2022/12/28 05:27:31;;;;;;;8.35;4.55;;;7.60;99.90;;;;;;5027102;28;20056;-38
2022/12/28 05:29:56;;;;;;;7.65;4.40;;;7.60;99.90;;;;;;5022447;28;20049;-37
2022/12/28 05:32:22;;;;;;;7.97;4.63;;;7.60;99.90;;;;;;5025150;28;20034;-36
2022/12/28 05:34:48;;;;;;;8.77;4.70;;;7.60;99.90;;;;;;5028496;28;20033;-36
2022/12/28 05:37:14;;;;;;;6.85;4.47;;;7.60;99.90;;;;;;5029476;28;20033;-37
2022/12/28 05:39:40;;;;;;;9.70;4.55;;;7.70;99.90;;;;;;5025851;28;20044;-36
2022/12/28 05:42:05;;;;;;;6.97;3.90;;;7.70;99.90;;;;;;5024533;28;20435;-40
2022/12/28 05:44:31;;;;;;;6.65;4.32;;;7.80;99.90;;;;;;5023474;28;20124;-37
2022/12/28 05:46:57;;;;;;;9.80;5.07;;;7.80;99.90;;;;;;5010726;28;20057;-38
2022/12/28 05:49:22;;;;;;;8.68;3.80;;;7.80;99.90;;;;;;5026631;28;20057;-37
2022/12/28 05:51:50;;;;;;;8.55;5.25;;;7.80;99.90;;;;;;5021419;28;20045;-35
2022/12/28 05:54:16;;;;;;;9.40;5.13;;;7.90;99.90;;;;;;5025590;28;20044;-37
2022/12/28 05:56:42;;;;;;;10.60;5.03;;;7.90;99.90;;;;;;5027841;28;20559;-36
2022/12/28 05:59:08;;;;;;;8.52;5.28;;;7.80;99.90;;;;;;5026489;28;20108;-36
2022/12/28 06:01:37;;;;;;;10.50;4.97;;;7.80;99.90;;;;;;5023365;28;20298;-36
2022/12/28 06:04:12;;;;;;;8.60;5.20;;;7.80;99.90;;;;;;5021196;28;20088;-37
2022/12/28 06:06:38;;;;;;;7.50;3.92;;;7.80;99.90;;;;;;5019211;28;20097;-36
2022/12/28 06:09:03;;;;;;;10.25;5.28;;;7.80;99.90;;;;;;5039061;28;20042;-36
2022/12/28 06:11:29;;;;;;;9.18;5.40;;;7.90;99.90;;;;;;5021832;28;20045;-36
2022/12/28 06:13:57;;;;;;;9.95;5.20;;;7.90;99.90;;;;;;5025173;28;20514;-37
2022/12/28 06:16:32;;;;;;;8.30;4.20;;;7.90;99.90;;;;;;5026248;28;20513;-37
2022/12/28 06:18:58;;;;;;;7.20;4.55;;;8.00;99.90;;;;;;5023137;28;20067;-35
2022/12/28 06:21:31;;;;;;;8.27;4.93;;;8.00;99.90;;;;;;5025115;28;20045;-36
2022/12/28 06:23:59;;;;;;;9.77;4.63;;;8.00;99.90;;;;;;5023871;28;20052;-36
2022/12/28 06:26:27;;;;;;;10.15;5.07;;;8.00;99.90;;;;;;5026438;28;20164;-36
2022/12/28 06:28:52;;;;;;;7.88;4.70;;;8.00;99.90;;;;;;5021897;28;20127;-37
2022/12/28 06:31:30;;;;;;;12.48;5.55;;;8.00;99.90;;;;;;5019191;28;20041;-36
2022/12/28 06:33:58;;;;;;;9.95;4.88;;;7.90;99.90;;;;;;5022096;28;20080;-37
2022/12/28 06:36:31;;;;;;;9.65;6.05;;;8.00;99.90;;;;;;5022005;28;20407;-36
2022/12/28 06:38:58;;;;;;;10.02;5.28;;;8.00;99.90;;;;;;5025066;28;20084;-38
2022/12/28 06:41:25;;;;;;;6.93;4.53;;;8.10;99.90;;;;;;5025169;28;20029;-37
2022/12/28 06:43:51;;;;;;;7.50;4.88;;;8.00;99.90;;;;;;5028061;28;20049;-36
2022/12/28 06:46:19;;;;;;;9.00;5.43;;;8.10;99.90;;;;;;5023160;28;20210;-37
2022/12/28 06:48:45;;;;;;;7.93;3.70;;;8.10;99.90;;;;;;5023216;28;20053;-37
2022/12/28 06:51:23;;;;;;;7.47;4.28;;;8.10;99.90;;;;;;5022123;28;20621;-38
2022/12/28 06:53:50;;;;;;;7.97;4.80;;;8.20;99.90;;;;;;5023120;28;20505;-37
2022/12/28 06:56:31;;;;;;;8.73;4.90;;;8.20;99.90;;;;;;5020338;28;20112;-37
2022/12/28 06:58:57;;;;;;;8.18;4.38;;;8.10;99.90;;;;;;5019262;28;20041;-37
2022/12/28 07:01:28;;;;;;;7.03;4.47;;;8.20;99.90;;;;;;5023232;28;20037;-36
2022/12/28 07:03:56;;;;;;;8.77;5.38;;;8.10;99.90;;;;;;5024928;28;20055;-35
2022/12/28 07:06:25;;;;;;;6.88;4.43;;;8.10;99.90;;;;;;5026031;28;20045;-38
2022/12/28 07:09:02;;;;;;;5.95;3.83;;;8.10;99.90;;;;;;5054701;28;20057;-40
2022/12/28 07:11:28;;;;;;;11.68;5.13;;;8.20;99.90;;;;;;5020297;28;20503;-35
2022/12/28 07:13:55;;;;;;;8.20;4.57;;;8.20;99.90;;;;;;5017518;28;20038;-34
2022/12/28 07:16:22;;;;;;;8.00;4.40;;;8.20;99.90;;;;;;5026425;28;20040;-35
2022/12/28 07:18:48;;;;;;;7.95;3.88;;;8.20;99.90;;;;;;5015574;28;20545;-35
2022/12/28 07:21:23;;;;;;;8.02;4.95;;;8.20;99.90;;;;;;5021402;28;20120;-36
2022/12/28 07:23:51;;;;;;;8.60;3.92;;;8.20;99.90;;;;;;5025274;28;20595;-35
2022/12/28 07:26:20;;;;;;;9.73;4.70;;;8.30;99.90;;;;;;5023503;28;20868;-35
2022/12/28 07:28:47;;;;;;;6.88;3.72;;;8.30;99.90;;;;;;5023515;28;20049;-36
2022/12/28 07:31:21;;;;;;;9.07;4.22;;;8.30;99.90;;;;;;5024664;28;20037;-36
2022/12/28 07:33:48;;;;;;;7.65;3.85;;;8.30;99.90;;;;;;5023901;28;20041;-37
2022/12/28 07:36:17;;;;;;;7.97;4.20;;;8.40;99.90;;;;;;5024281;28;20033;-37
2022/12/28 07:38:43;;;;;;;8.25;4.28;;;8.40;99.90;;;;;;5025383;28;20111;-36
2022/12/28 07:41:15;;;;;;;7.43;4.20;;;8.40;99.90;;;;;;5020648;28;20041;-37
2022/12/28 07:43:41;;;;;;;12.18;5.13;;;8.40;99.90;;;;;;5023948;28;20037;-39
2022/12/28 07:46:30;;;;;;;7.28;4.10;;;8.50;99.90;;;;;;5024068;28;20049;-36
2022/12/28 07:48:56;;;;;;;11.55;4.75;;;8.50;99.90;;;;;;5023472;28;20053;-37
2022/12/28 07:51:30;;;;;;;8.35;4.32;;;8.40;99.90;;;;;;5022507;28;20041;-37
2022/12/28 07:53:57;;;;;;;7.13;3.90;;;8.40;99.90;;;;;;5023556;28;20049;-37
2022/12/28 07:56:25;;;;;;;6.63;4.03;;;8.40;99.90;;;;;;5022760;28;20068;-36
2022/12/28 07:58:53;;;;;;;7.28;3.80;;;8.40;99.90;;;;;;5025235;28;20491;-37
2022/12/28 08:01:21;;;;;;;7.95;4.45;;;8.50;99.90;;;;;;5020963;28;20049;-37
2022/12/28 08:03:51;;;;;;;9.75;4.78;;;8.40;99.90;;;;;;5020344;28;20157;-38
2022/12/28 08:06:18;;;;;;;7.60;4.50;;;8.40;99.90;;;;;;5021084;28;20056;-37
2022/12/28 08:08:46;;;;;;;6.88;4.57;;;8.40;99.90;;;;;;5021014;28;20049;-37
2022/12/28 08:11:18;;;;;;;9.65;4.80;;;8.30;99.90;;;;;;5025502;28;20045;-37
2022/12/28 08:13:45;;;;;;;7.63;4.35;;;8.30;99.90;;;;;;5018887;28;20041;-36
2022/12/28 08:16:13;;;;;;;6.47;2.88;;;8.30;99.90;;;;;;5029630;28;20136;-39
2022/12/28 08:18:40;;;;;;;6.28;3.85;;;8.40;99.90;;;;;;5027780;28;20037;-36
2022/12/28 08:21:13;;;;;;;6.32;3.58;;;8.40;99.90;;;;;;5031515;28;20048;-37
2022/12/28 08:23:40;;;;;;;6.20;3.42;;;8.40;99.90;;;;;;5023221;28;20118;-38
2022/12/28 08:26:12;;;;;;;4.72;2.72;;;8.40;99.90;;;;;;5023443;28;20051;-37
2022/12/28 08:28:39;;;;;;;5.67;3.40;;;8.50;99.90;;;;;;5025456;28;20037;-37
2022/12/28 08:31:10;;;;;;;7.75;3.53;;;8.60;99.90;;;;;;5029671;28;20304;-36
2022/12/28 08:33:36;;;;;;;8.40;4.05;;;8.60;99.90;;;;;;5018974;28;20515;-36
2022/12/28 08:36:03;;;;;;;5.05;3.25;;;8.60;99.90;;;;;;5020942;28;20371;-38
2022/12/28 08:38:29;;;;;;;7.05;3.15;;;8.60;99.90;;;;;;5029713;28;20112;-37
2022/12/28 08:40:56;;;;;;;6.03;2.53;;;8.60;99.90;;;;;;5024710;28;20124;-36
2022/12/28 08:43:22;;;;;;;7.72;3.58;;;8.60;99.90;;;;;;5029723;28;20037;-36
2022/12/28 08:46:03;;;;;;;5.32;2.97;;;8.60;99.90;;;;;;5017077;28;20525;-37
2022/12/28 08:48:29;;;;;;;8.63;3.08;;;8.70;99.90;;;;;;5021730;28;20490;-37
2022/12/28 08:51:00;;;;;;;5.43;3.20;;;8.70;99.90;;;;;;5016696;28;20335;-38
2022/12/28 08:53:26;;;;;;;7.55;3.00;;;8.70;99.90;;;;;;5013595;28;20034;-39
2022/12/28 08:55:51;;;;;;;5.97;2.85;;;8.70;99.90;;;;;;5015380;28;20045;-38
2022/12/28 08:58:17;;;;;;;6.32;3.75;;;8.70;99.90;;;;;;5023250;28;20053;-37
2022/12/28 09:00:43;;;;;;;5.25;2.83;;;8.80;99.90;;;;;;5022386;28;20128;-37
2022/12/28 09:03:09;;;;;;;5.45;2.13;;;8.80;99.90;;;;;;5020359;28;20041;-37
2022/12/28 09:05:38;;;;;;;6.28;3.00;;;8.70;99.90;;;;;;5019369;28;20034;-37
2022/12/28 09:08:04;;;;;;;6.80;3.75;;;8.80;99.90;;;;;;5020864;28;20080;-36
2022/12/28 09:10:30;;;;;;;5.57;3.08;;;8.80;99.90;;;;;;5024988;28;20115;-37
2022/12/28 09:12:56;;;;;;;7.38;2.92;;;8.80;99.90;;;;;;5025662;28;20037;-39
2022/12/28 09:15:23;;;;;;;7.40;3.53;;;8.80;99.90;;;;;;5022221;28;21803;-37
2022/12/28 09:17:49;;;;;;;6.72;3.35;;;8.80;99.90;;;;;;5021748;28;20095;-39
2022/12/28 09:20:14;;;;;;;8.43;4.13;;;8.80;99.90;;;;;;5019406;28;20037;-38
2022/12/28 09:22:40;;;;;;;7.35;3.80;;;8.80;99.90;;;;;;5021783;28;20491;-38
2022/12/28 09:25:06;;;;;;;7.05;3.60;;;8.80;99.90;;;;;;5025009;28;20038;-37
2022/12/28 09:27:31;;;;;;;5.93;3.72;;;8.80;99.90;;;;;;5020562;28;20038;-39
2022/12/28 09:29:57;;;;;;;8.00;4.10;;;8.80;99.90;;;;;;5021145;28;20478;-40
2022/12/28 09:32:23;;;;;;;5.50;3.40;;;8.80;99.90;;;;;;5010605;28;20045;-37
2022/12/28 09:34:48;;;;;;;7.90;3.45;;;8.80;99.90;;;;;;5023317;28;20041;-36
2022/12/28 09:37:14;;;;;;;6.13;3.50;;;8.90;99.90;;;;;;5027648;28;20375;-37
2022/12/28 09:39:40;;;;;;;8.50;3.60;;;8.90;99.90;;;;;;5026983;28;20048;-37
2022/12/28 09:42:22;;;;;;;8.15;3.78;;;8.90;99.90;;;;;;5030271;28;20110;-36
2022/12/28 09:44:58;;;;;;;5.90;3.33;;;8.90;99.90;;;;;;5027238;28;20562;-38
2022/12/28 09:47:32;;;;;;;6.47;2.90;;;8.90;99.90;;;;;;5023623;28;20045;-37
2022/12/28 09:50:22;;;;;;;7.05;3.20;;;8.90;99.90;;;;;;5020465;28;20057;-37
2022/12/28 09:52:57;;;;;;;5.43;2.67;;;8.90;99.90;;;;;;5021028;28;20569;-36
2022/12/28 09:55:24;;;;;;;6.55;3.70;;;8.90;99.90;;;;;;5014387;28;20052;-36
2022/12/28 09:57:56;;;;;;;8.07;4.07;;;8.90;99.90;;;;;;5016669;28;20391;-40
2022/12/28 10:00:24;;;;;;;6.55;3.70;;;8.90;99.90;;;;;;5024347;28;20045;-38
2022/12/28 10:03:02;;;;;;;6.80;3.20;;;8.90;99.90;;;;;;5021597;28;20447;-37
2022/12/28 10:05:28;;;;;;;6.28;3.30;;;8.90;99.90;;;;;;5024061;28;20377;-38
2022/12/28 10:07:57;;;;;;;5.97;3.63;;;8.90;99.90;;;;;;5022781;28;20562;-43
2022/12/28 10:10:23;;;;;;;6.03;3.80;;;8.90;99.90;;;;;;5016726;28;20519;-35
2022/12/28 10:12:49;;;;;;;4.78;2.63;;;8.90;99.90;;;;;;5017515;28;20053;-37
2022/12/28 10:15:16;;;;;;;6.93;4.00;;;8.90;99.90;;;;;;5021472;28;20044;-37
2022/12/28 10:17:43;;;;;;;7.82;4.70;;;8.90;99.90;;;;;;5021705;28;20116;-35
2022/12/28 10:20:21;;;;;;;6.03;3.85;;;8.90;99.90;;;;;;5017274;28;20048;-37
2022/12/28 10:22:52;;;;;;;6.85;4.28;;;8.90;99.90;;;;;;5024070;28;20042;-35
2022/12/28 10:25:21;;;;;;;7.50;3.90;;;8.90;99.90;;;;;;5026033;28;20041;-38
2022/12/28 10:27:48;;;;;;;6.90;3.60;;;8.90;99.90;;;;;;5023571;28;20037;-36
2022/12/28 10:30:25;;;;;;;7.00;3.17;;;8.90;99.90;;;;;;5021669;28;20029;-36
2022/12/28 10:33:00;;;;;;;8.38;3.78;;;8.90;99.90;;;;;;5022353;28;20049;-38
2022/12/28 10:35:47;;;;;;;7.70;3.80;;;8.90;99.90;;;;;;5021376;28;20042;-35
2022/12/28 10:38:24;;;;;;;7.03;3.13;;;8.90;99.90;;;;;;5018505;28;20636;-35
2022/12/28 10:41:05;;;;;;;5.20;2.63;;;8.90;99.90;;;;;;5018822;28;20499;-36
2022/12/28 10:43:34;;;;;;;6.63;3.10;;;8.90;99.90;;;;;;5020680;28;20099;-37
2022/12/28 10:46:02;;;;;;;6.72;3.80;;;8.90;99.90;;;;;;5010449;28;20049;-38
2022/12/28 10:48:37;;;;;;;7.07;3.78;;;8.80;99.90;;;;;;5018497;28;20404;-36
2022/12/28 10:51:11;;;;;;;5.40;2.90;;;8.80;99.90;;;;;;5025158;28;20411;-36
2022/12/28 10:53:43;;;;;;;5.60;2.67;;;8.90;99.90;;;;;;5020492;28;20056;-36
2022/12/28 10:56:11;;;;;;;;;;;8.80;99.90;;;;;;5014420;28;20505;-36
2022/12/28 10:58:45;;;;;;;5.18;3.05;;;8.80;99.90;;;;;;5022474;28;20406;-36
2022/12/28 11:01:11;;;;;;;6.30;3.10;;;8.80;99.90;;;;;;5014211;28;20041;-35
2022/12/28 11:03:38;;;;;;;5.80;2.75;;;8.80;99.90;;;;;;5007880;28;20051;-39
2022/12/28 11:06:13;;;;;;;5.57;3.10;;;8.90;99.90;;;;;;5018192;28;20045;-39
2022/12/28 11:08:40;;;;;;;5.45;2.97;;;8.90;99.90;;;;;;5009790;28;20029;-38
2022/12/28 11:11:16;;;;;;;4.75;2.70;;;8.90;99.90;;;;;;5014950;28;20131;-36
2022/12/28 11:13:49;;;;;;;4.70;2.35;;;8.90;99.90;;;;;;5021850;28;20502;-42
2022/12/28 11:16:14;;;;;;;6.30;3.00;;;8.90;99.90;;;;;;5015693;28;20128;-43
2022/12/28 11:18:40;;;;;;;4.53;2.45;;;8.90;99.90;;;;;;5018398;28;20459;-45
2022/12/28 11:21:18;;;;;;;4.35;2.42;;;8.90;99.90;;;;;;4999821;28;20045;-43
2022/12/28 11:23:44;;;;;;;3.85;1.85;;;8.90;99.90;;;;;;5021827;28;20073;-42
2022/12/28 11:26:11;;;;;;;5.05;2.63;;;8.90;99.90;;;;;;5020350;28;20061;-41
2022/12/28 11:28:41;;;;;;;5.15;3.05;;;9.00;99.90;;;;;;5023265;28;20080;-43
2022/12/28 11:31:11;;;;;;;4.05;2.42;;;8.90;99.90;;;;;;5020637;28;20501;-38
2022/12/28 11:33:41;;;;;;;4.07;2.40;;;8.90;99.90;;;;;;5015321;28;20092;-45
2022/12/28 11:36:16;;;;;;;5.90;2.30;;;8.90;99.90;;;;;;5014790;28;20042;-45
2022/12/28 11:38:44;;;;;;;4.90;2.55;;;8.90;99.90;;;;;;5021000;28;20030;-46
2022/12/28 11:41:32;;;;;;;4.43;2.40;;;8.90;99.90;;;;;;5013371;28;20758;-46
2022/12/28 11:44:00;;;;;;;8.98;4.40;;;8.90;99.90;;;;;;5021776;28;20084;-47
2022/12/28 11:46:26;;;;;;;5.10;2.63;;;8.90;99.90;;;;;;5016732;28;21290;-45
2022/12/28 11:49:03;;;;;;;7.72;3.17;;;8.90;99.90;;;;;;5017297;28;20049;-46
2022/12/28 11:51:34;;;;;;;5.53;2.88;;;8.90;99.90;;;;;;5018472;28;20069;-42
2022/12/28 11:54:25;;;;;;;7.22;3.60;;;8.90;99.90;;;;;;5035465;28;20121;-45
2022/12/28 11:56:50;;;;;;;6.22;3.15;;;8.90;99.90;;;;;;5023929;28;20037;-40
2022/12/28 11:59:34;;;;;;;6.90;3.38;;;8.90;99.90;;;;;;5023336;28;20046;-45
2022/12/28 12:02:02;;;;;;;4.80;2.72;;;8.90;99.90;;;;;;5018714;28;22513;-48
2022/12/28 12:04:34;;;;;;;6.45;2.83;;;8.90;99.90;;;;;;5024962;28;20117;-46
2022/12/28 12:07:00;;;;;;;3.78;2.15;;;8.90;99.90;;;;;;5026647;28;20071;-45
2022/12/28 12:09:37;;;;;;;6.22;2.75;;;8.90;99.90;;;;;;5022244;28;20125;-48
2022/12/28 12:12:15;;;;;;;4.63;2.50;;;8.90;99.90;;;;;;5019168;28;20507;-39
2022/12/28 12:14:43;;;;;;;6.75;3.13;;;8.90;99.90;;;;;;5023241;28;20150;-45
2022/12/28 12:17:13;;;;;;;3.30;2.00;;;8.90;99.90;;;;;;5026151;28;20446;-47
2022/12/28 12:19:46;;;;;;;3.50;1.98;;;8.90;99.90;;;;;;5024426;28;20617;-48
2022/12/28 12:22:17;;;;;;;3.47;1.98;;;9.00;99.90;;;;;;5022240;28;20046;-42
2022/12/28 12:24:57;;;;;;;4.13;2.30;;;8.90;99.90;;;;;;5023394;28;20053;-48
2022/12/28 12:27:32;;;;;;;4.88;1.95;;;9.00;99.90;;;;;;5023563;28;20042;-48
2022/12/28 12:30:15;;;;;;;3.33;1.73;;;9.00;99.90;;;;;;5018319;28;20049;-46
2022/12/28 12:33:03;;;;;;;3.75;1.40;;;9.00;99.90;;;;;;5023574;28;20068;-47
2022/12/28 12:36:01;;;;;;;2.90;1.40;;;9.00;99.90;;;;;;5025494;28;20443;-47
2022/12/28 12:38:33;;;;;;;3.40;1.25;;;9.00;99.90;;;;;;4985958;28;20104;-48
2022/12/28 12:41:40;;;;;;;3.30;1.35;;;8.90;99.90;;;;;;5027627;28;20048;-47
2022/12/28 12:44:24;;;;;;;1.80;0.85;;;9.00;99.90;;;;;;5012654;28;20061;-46
2022/12/28 12:47:08;;;;;;;2.10;1.13;;;9.00;99.90;;;;;;5025547;28;20291;-45
2022/12/28 12:49:34;;;;;;;2.65;1.05;;;9.00;99.90;;;;;;5038683;28;20083;-48
2022/12/28 12:52:27;;;;;;;4.60;1.45;;;9.00;99.90;;;;;;5020690;28;20176;-49
2022/12/28 12:55:09;;;;;;;1.60;0.80;;;9.00;99.90;;;;;;5021969;28;20046;-44
2022/12/28 12:57:53;;;;;;;2.65;1.10;;;9.00;99.90;;;;;;5023193;28;20468;-42
2022/12/28 13:00:21;;;;;;;1.67;0.82;;;9.00;99.90;;;;;;5020852;28;20041;-50
2022/12/28 13:03:04;;;;;;;1.90;1.10;;;9.00;99.90;;;;;;5025956;28;20531;-48
2022/12/28 13:05:30;;;;;;;2.40;1.10;;;9.00;99.90;;;;;;5019446;28;20095;-43
2022/12/28 13:07:59;;;;;;;2.15;1.20;;;9.00;99.90;;;;;;5024268;28;20506;-44
2022/12/28 13:10:30;;;;;;;1.98;1.08;;;9.10;99.90;;;;;;5027703;28;20041;-48
2022/12/28 13:12:59;;;;;;;2.42;1.13;;;9.10;99.90;;;;;;5019775;28;20098;-41
2022/12/28 13:15:25;;;;;;;3.72;1.20;;;9.10;99.90;;;;;;5022946;28;20448;-40
2022/12/28 13:18:18;;;;;;;2.25;1.25;;;9.10;99.90;;;;;;5021681;28;20179;-45
2022/12/28 13:20:53;;;;;;;1.67;0.82;;;9.10;99.90;;;;;;5017274;28;20042;-48
2022/12/28 13:23:21;;;;;;;2.20;1.10;;;9.10;99.90;;;;;;5019168;28;20116;-39
2022/12/28 13:25:50;;;;;;;2.80;1.50;;;9.10;99.90;;;;;;5021046;28;20517;-47
2022/12/28 13:28:27;;;;;;;5.32;1.55;;;9.10;99.90;;;;;;5026229;28;20630;-49
2022/12/28 13:31:05;;;;;;;2.83;1.10;;;9.10;99.90;;;;;;5026369;28;20136;-48
2022/12/28 13:33:31;;;;;;;4.93;1.42;;;9.10;99.90;;;;;;5023014;28;20040;-45
2022/12/28 13:36:09;;;;;;;2.83;1.38;;;9.10;99.90;;;;;;5028151;28;20049;-49
2022/12/28 13:38:35;;;;;;;2.40;1.20;;;9.00;99.90;;;;;;5023151;28;20037;-50
2022/12/28 13:41:04;;;;;;;3.60;1.40;;;9.00;99.90;;;;;;5030520;28;20037;-44
2022/12/28 13:43:42;;;;;;;2.92;1.25;;;9.10;99.90;;;;;;5020524;28;20037;-47